createdAt,value
2023-04-09T00:01:56.746Z,27.40
2023-04-09T00:04:24.147Z,25.98
2023-04-09T00:06:51.426Z,25.00
2023-04-09T00:09:18.781Z,22.73
2023-04-09T00:11:46.295Z,23.92
2023-04-09T00:14:13.728Z,28.48
2023-04-09T00:16:41.125Z,26.77
2023-04-09T00:19:08.485Z,29.08
2023-04-09T00:21:36.193Z,31.17
2023-04-09T00:24:03.864Z,34.75
2023-04-09T00:26:32.121Z,28.75
2023-04-09T00:28:59.540Z,37.38
2023-04-09T00:31:27.094Z,31.73
2023-04-09T00:33:54.712Z,32.05
2023-04-09T00:36:22.152Z,29.73
2023-04-09T00:38:51.348Z,27.80
2023-04-09T00:41:19.057Z,31.25
2023-04-09T00:43:46.635Z,28.92
2023-04-09T00:46:14.779Z,27.98
2023-04-09T00:48:42.439Z,29.70
2023-04-09T00:51:10.240Z,30.70
2023-04-09T00:53:37.642Z,29.38
2023-04-09T00:56:06.275Z,29.20
2023-04-09T00:58:34.225Z,28.77
2023-04-09T01:01:01.882Z,25.33
2023-04-09T01:03:29.888Z,28.15
2023-04-09T01:06:09.189Z,29.33
2023-04-09T01:08:47.846Z,32.58
2023-04-09T01:11:32.856Z,32.47
2023-04-09T01:14:15.222Z,30.67
2023-04-09T01:16:47.885Z,31.40
2023-04-09T01:19:44.259Z,27.50
2023-04-09T01:22:36.988Z,30.00
2023-04-09T01:25:38.956Z,31.80
2023-04-09T01:28:21.162Z,30.58
2023-04-09T01:30:53.678Z,33.40
2023-04-09T01:33:22.291Z,27.75
2023-04-09T01:35:51.170Z,30.10
2023-04-09T01:38:20.969Z,31.65
2023-04-09T01:40:49.945Z,35.33
2023-04-09T01:43:19.222Z,31.15
2023-04-09T01:45:48.326Z,31.85
2023-04-09T01:48:16.762Z,30.55
2023-04-09T01:50:44.569Z,33.78
2023-04-09T01:53:12.076Z,34.28
2023-04-09T01:55:39.578Z,32.38
2023-04-09T01:58:07.036Z,33.10
2023-04-09T02:00:47.074Z,32.33
2023-04-09T02:03:25.113Z,35.58
2023-04-09T02:06:09.546Z,33.42
2023-04-09T02:08:37.895Z,35.35
2023-04-09T02:11:10.802Z,37.47
2023-04-09T02:13:41.364Z,32.75
2023-04-09T02:16:11.077Z,35.13
2023-04-09T02:18:38.518Z,34.80
2023-04-09T02:21:06.214Z,27.92
2023-04-09T02:23:34.031Z,35.25
2023-04-09T02:26:02.080Z,31.63
2023-04-09T02:28:29.998Z,33.40
2023-04-09T02:30:57.448Z,25.67
2023-04-09T02:33:24.779Z,28.80
2023-04-09T02:35:52.189Z,30.38
2023-04-09T02:38:20.061Z,34.88
2023-04-09T02:40:47.599Z,28.80
2023-04-09T02:43:14.857Z,30.45
2023-04-09T02:45:42.316Z,29.17
2023-04-09T02:48:09.860Z,30.27
2023-04-09T02:50:37.768Z,32.13
2023-04-09T02:53:05.674Z,32.88
2023-04-09T02:55:33.035Z,30.20
2023-04-09T02:58:00.684Z,32.45
2023-04-09T03:00:28.334Z,28.30
2023-04-09T03:02:56.508Z,35.63
2023-04-09T03:05:24.194Z,28.75
2023-04-09T03:07:51.645Z,32.55
2023-04-09T03:10:19.125Z,33.35
2023-04-09T03:12:47.967Z,28.92
2023-04-09T03:15:15.482Z,30.30
2023-04-09T03:17:42.811Z,31.67
2023-04-09T03:20:10.675Z,30.73
2023-04-09T03:22:40.186Z,29.20
2023-04-09T03:25:20.833Z,36.03
2023-04-09T03:27:51.022Z,29.17
2023-04-09T03:30:26.233Z,31.90
2023-04-09T03:32:53.832Z,31.65
2023-04-09T03:35:24.028Z,29.17
2023-04-09T03:37:56.576Z,33.97
2023-04-09T03:40:24.056Z,37.95
2023-04-09T03:42:52.116Z,29.60
2023-04-09T03:45:19.907Z,34.53
2023-04-09T03:47:50.536Z,29.90
2023-04-09T03:50:22.384Z,31.35
2023-04-09T03:52:55.989Z,33.97
2023-04-09T03:55:23.742Z,33.92
2023-04-09T03:57:52.152Z,30.92
2023-04-09T04:00:22.574Z,28.88
2023-04-09T04:03:14.891Z,30.13
2023-04-09T04:06:09.503Z,34.17
2023-04-09T04:09:06.335Z,32.00
2023-04-09T04:11:43.911Z,33.45
2023-04-09T04:14:11.930Z,30.80
2023-04-09T04:16:41.825Z,29.95
2023-04-09T04:19:10.602Z,33.45
2023-04-09T04:21:44.106Z,34.78
2023-04-09T04:24:11.597Z,32.72
2023-04-09T04:26:40.715Z,30.77
2023-04-09T04:29:08.890Z,31.25
2023-04-09T04:31:57.111Z,35.70
2023-04-09T04:34:28.016Z,36.97
2023-04-09T04:39:32.776Z,34.13
2023-04-09T04:42:04.765Z,32.35
2023-04-09T04:44:32.699Z,32.80
2023-04-09T04:47:11.342Z,32.67
2023-04-09T04:49:39.156Z,30.90
2023-04-09T04:52:08.613Z,34.10
2023-04-09T04:54:40.697Z,35.10
2023-04-09T04:57:08.360Z,30.60
2023-04-09T04:59:41.118Z,32.15
2023-04-09T05:02:11.280Z,31.83
2023-04-09T05:04:58.956Z,31.05
2023-04-09T05:07:34.623Z,34.90
2023-04-09T05:10:02.319Z,36.00
2023-04-09T05:12:35.777Z,33.40
2023-04-09T05:15:03.542Z,34.25
2023-04-09T05:17:31.512Z,30.75
2023-04-09T05:19:58.984Z,29.88
2023-04-09T05:22:34.405Z,33.60
2023-04-09T05:25:02.495Z,34.83
2023-04-09T05:27:30.970Z,34.13
2023-04-09T05:30:01.771Z,32.53
2023-04-09T05:32:29.450Z,31.58
2023-04-09T05:34:58.287Z,30.77
2023-04-09T05:37:27.684Z,36.33
2023-04-09T05:39:57.115Z,32.20
2023-04-09T05:42:25.661Z,32.63
2023-04-09T05:45:01.003Z,30.15
2023-04-09T05:47:28.877Z,37.88
2023-04-09T05:50:04.512Z,37.00
2023-04-09T05:52:32.807Z,35.38
2023-04-09T05:55:00.550Z,33.38
2023-04-09T05:57:40.565Z,40.03
2023-04-09T06:00:08.811Z,36.58
2023-04-09T06:02:45.801Z,31.63
2023-04-09T06:05:13.654Z,37.33
2023-04-09T06:07:41.498Z,35.28
2023-04-09T06:10:09.840Z,48.63
2023-04-09T06:12:37.388Z,40.13
2023-04-09T06:15:06.162Z,40.45
2023-04-09T06:17:34.110Z,45.88
2023-04-09T06:20:01.616Z,39.05
2023-04-09T06:22:29.256Z,43.97
2023-04-09T06:24:56.720Z,37.60
2023-04-09T06:27:24.593Z,37.67
2023-04-09T06:29:52.063Z,35.53
2023-04-09T06:32:19.840Z,31.10
2023-04-09T06:34:48.433Z,39.33
2023-04-09T06:37:16.256Z,39.50
2023-04-09T06:39:53.926Z,36.08
2023-04-09T06:42:28.052Z,34.55
2023-04-09T06:45:08.907Z,34.13
2023-04-09T06:47:36.513Z,37.38
2023-04-09T06:50:04.696Z,33.92
2023-04-09T06:52:32.269Z,30.95
2023-04-09T06:54:59.771Z,33.88
2023-04-09T06:57:27.521Z,38.35
2023-04-09T06:59:55.083Z,34.40
2023-04-09T07:02:22.778Z,34.47
2023-04-09T07:04:51.046Z,28.60
2023-04-09T07:07:21.044Z,32.17
2023-04-09T07:09:51.791Z,29.77
2023-04-09T07:12:33.198Z,32.45
2023-04-09T07:15:02.217Z,33.40
2023-04-09T07:17:31.099Z,31.10
2023-04-09T07:19:58.680Z,31.67
2023-04-09T07:22:27.482Z,30.30
2023-04-09T07:24:55.342Z,35.85
2023-04-09T07:27:24.352Z,37.08
2023-04-09T07:29:52.078Z,35.33
2023-04-09T07:32:19.687Z,39.42
2023-04-09T07:34:46.990Z,33.92
2023-04-09T07:37:14.411Z,35.30
2023-04-09T07:39:42.816Z,31.73
2023-04-09T07:42:10.622Z,38.72
2023-04-09T07:44:38.847Z,39.40
2023-04-09T07:47:08.006Z,35.13
2023-04-09T07:49:38.980Z,41.10
2023-04-09T07:52:06.740Z,37.05
2023-04-09T07:54:35.939Z,39.88
2023-04-09T07:57:03.559Z,30.95
2023-04-09T07:59:31.930Z,38.45
2023-04-09T08:02:00.118Z,36.97
2023-04-09T08:04:28.302Z,35.95
2023-04-09T08:06:56.049Z,34.00
2023-04-09T08:09:23.492Z,33.33
2023-04-09T08:11:50.929Z,34.03
2023-04-09T08:14:18.791Z,37.28
2023-04-09T08:16:48.664Z,31.40
2023-04-09T08:19:17.473Z,33.35
2023-04-09T08:21:45.041Z,39.08
2023-04-09T08:24:12.881Z,29.75
2023-04-09T08:26:41.531Z,36.15
2023-04-09T08:29:11.670Z,36.22
2023-04-09T08:31:39.414Z,36.20
2023-04-09T08:34:07.455Z,23.83
2023-04-09T08:36:36.064Z,34.75
2023-04-09T08:39:04.213Z,30.85
2023-04-09T08:41:31.840Z,30.98
2023-04-09T08:43:59.956Z,24.75
2023-04-09T08:46:28.051Z,33.65
2023-04-09T08:48:56.271Z,33.47
2023-04-09T08:51:24.836Z,32.15
2023-04-09T08:54:03.691Z,36.92
2023-04-09T08:56:32.497Z,32.55
2023-04-09T08:59:00.157Z,21.02
2023-04-09T09:01:31.485Z,39.67
2023-04-09T09:04:00.744Z,27.80
2023-04-09T09:06:33.501Z,27.48
2023-04-09T09:09:12.101Z,35.50
2023-04-09T09:11:43.618Z,34.72
2023-04-09T09:14:13.180Z,30.40
2023-04-09T09:16:43.685Z,28.80
2023-04-09T09:19:30.651Z,32.45
2023-04-09T09:22:03.539Z,34.38
2023-04-09T09:24:32.849Z,34.10
2023-04-09T09:27:01.536Z,18.58
2023-04-09T09:29:29.174Z,24.55
2023-04-09T09:31:56.773Z,21.85
2023-04-09T09:34:25.753Z,19.58
2023-04-09T09:36:53.175Z,22.13
2023-04-09T09:39:22.152Z,19.17
2023-04-09T09:42:07.883Z,17.17
2023-04-09T09:44:35.142Z,18.83
2023-04-09T09:47:04.832Z,18.95
2023-04-09T09:49:32.257Z,18.58
2023-04-09T09:52:03.001Z,12.48
2023-04-09T09:54:39.103Z,19.08
2023-04-09T09:57:09.882Z,12.75
2023-04-09T10:00:04.411Z,14.65
2023-04-09T10:02:47.694Z,11.80
2023-04-09T10:05:16.559Z,12.75
2023-04-09T10:07:45.048Z,12.85
2023-04-09T10:10:12.539Z,15.20
2023-04-09T10:12:41.999Z,11.40
2023-04-09T10:15:10.270Z,17.85
2023-04-09T10:17:38.950Z,19.17
2023-04-09T10:20:45.077Z,16.55
2023-04-09T10:23:24.471Z,10.23
2023-04-09T10:25:52.282Z,13.95
2023-04-09T10:28:19.768Z,11.10
2023-04-09T10:30:47.144Z,12.10
2023-04-09T10:33:26.690Z,16.23
2023-04-09T10:35:59.856Z,15.40
2023-04-09T10:38:41.507Z,15.40
2023-04-09T10:41:11.799Z,23.75
2023-04-09T10:43:39.095Z,22.00
2023-04-09T10:46:25.008Z,13.32
2023-04-09T10:49:10.577Z,19.40
2023-04-09T10:51:39.780Z,13.35
2023-04-09T10:54:27.864Z,9.88
2023-04-09T10:57:11.420Z,21.27
2023-04-09T10:59:43.422Z,20.27
2023-04-09T11:02:39.857Z,20.48
2023-04-09T11:05:26.417Z,18.90
2023-04-09T11:08:11.757Z,17.90
2023-04-09T11:10:41.272Z,19.60
2023-04-09T11:13:13.625Z,22.63
2023-04-09T11:15:41.944Z,23.50
2023-04-09T11:18:14.353Z,25.15
2023-04-09T11:20:41.660Z,18.08
2023-04-09T11:23:08.967Z,20.08
2023-04-09T11:25:36.330Z,17.52
2023-04-09T11:28:05.403Z,15.48
2023-04-09T11:30:34.582Z,16.75
2023-04-09T11:33:02.541Z,19.83
2023-04-09T11:35:30.212Z,31.40
2023-04-09T11:37:57.764Z,22.60
2023-04-09T11:40:28.377Z,29.02
2023-04-09T11:42:57.356Z,19.77
2023-04-09T11:45:26.829Z,28.63
2023-04-09T11:47:54.644Z,21.75
2023-04-09T11:50:22.693Z,18.08
2023-04-09T11:52:50.776Z,21.50
2023-04-09T11:55:29.643Z,23.40
2023-04-09T11:58:01.773Z,21.58
2023-04-09T12:00:29.625Z,19.38
2023-04-09T12:03:03.664Z,15.07
2023-04-09T12:05:35.273Z,19.40
2023-04-09T12:08:07.411Z,19.45
2023-04-09T12:10:36.927Z,20.50
2023-04-09T12:13:10.562Z,19.42
2023-04-09T12:15:41.316Z,18.30
2023-04-09T12:18:10.485Z,21.95
2023-04-09T12:20:44.302Z,22.63
2023-04-09T12:23:13.172Z,22.48
2023-04-09T12:25:44.900Z,19.13
2023-04-09T12:28:15.964Z,17.90
2023-04-09T12:30:43.924Z,20.65
2023-04-09T12:33:11.661Z,21.83
2023-04-09T12:35:39.468Z,21.38
2023-04-09T12:38:06.781Z,19.80
2023-04-09T12:40:35.731Z,12.45
2023-04-09T12:43:03.160Z,15.70
2023-04-09T12:45:30.961Z,9.75
2023-04-09T12:47:58.786Z,16.98
2023-04-09T12:50:26.394Z,14.48
2023-04-09T12:52:53.750Z,19.95
2023-04-09T12:55:22.074Z,17.95
2023-04-09T12:57:50.900Z,15.02
2023-04-09T13:00:18.273Z,18.02
2023-04-09T13:02:45.806Z,22.98
2023-04-09T13:05:13.319Z,14.40
2023-04-09T13:07:42.912Z,18.15
2023-04-09T13:10:10.853Z,17.80
2023-04-09T13:12:38.341Z,18.80
2023-04-09T13:15:06.811Z,16.17
2023-04-09T13:17:34.424Z,16.52
2023-04-09T13:20:02.198Z,14.35
2023-04-09T13:22:29.648Z,15.13
2023-04-09T13:24:57.571Z,21.55
2023-04-09T13:27:24.983Z,20.77
2023-04-09T13:29:52.379Z,14.38
2023-04-09T13:32:22.516Z,16.30
2023-04-09T13:34:50.854Z,18.38
2023-04-09T13:37:18.310Z,16.75
2023-04-09T13:39:45.635Z,13.02
2023-04-09T13:42:14.348Z,10.63
2023-04-09T13:44:44.970Z,13.48
2023-04-09T13:47:13.411Z,11.63
2023-04-09T13:49:41.488Z,8.50
2023-04-09T13:52:09.725Z,14.00
2023-04-09T13:54:37.325Z,15.90
2023-04-09T13:57:04.594Z,12.93
2023-04-09T13:59:32.259Z,8.52
2023-04-09T14:01:59.777Z,11.25
2023-04-09T14:04:27.788Z,9.25
2023-04-09T14:06:55.090Z,13.95
2023-04-09T14:09:22.464Z,10.05
2023-04-09T14:11:49.977Z,8.98
2023-04-09T14:14:17.953Z,7.28
2023-04-09T14:16:47.108Z,7.80
2023-04-09T14:19:14.639Z,7.10
2023-04-09T14:21:41.923Z,7.32
2023-04-09T14:24:09.216Z,9.15
2023-04-09T14:26:37.349Z,13.18
2023-04-09T14:29:04.801Z,11.80
2023-04-09T14:31:32.088Z,10.98
2023-04-09T14:33:59.489Z,12.90
2023-04-09T14:36:27.517Z,8.00
2023-04-09T14:38:57.449Z,8.85
2023-04-09T14:41:25.330Z,10.27
2023-04-09T14:43:52.627Z,8.73
2023-04-09T14:46:20.437Z,7.90
2023-04-09T14:48:47.844Z,9.50
2023-04-09T14:51:15.296Z,8.93
2023-04-09T14:53:43.348Z,9.68
2023-04-09T14:56:10.787Z,6.10
2023-04-09T14:58:38.190Z,12.90
2023-04-09T15:01:06.082Z,7.47
2023-04-09T15:03:33.673Z,11.20
2023-04-09T15:06:01.053Z,8.60
2023-04-09T15:08:28.307Z,6.93
2023-04-09T15:10:56.849Z,10.00
2023-04-09T15:13:24.377Z,9.02
2023-04-09T15:15:51.914Z,10.23
2023-04-09T15:18:21.679Z,11.07
2023-04-09T15:20:49.484Z,10.93
2023-04-09T15:23:16.846Z,9.18
2023-04-09T15:25:44.539Z,14.50
2023-04-09T15:28:11.769Z,11.32
2023-04-09T15:30:39.423Z,8.18
2023-04-09T15:33:06.930Z,8.05
2023-04-09T15:35:35.221Z,8.43
2023-04-09T15:38:02.644Z,11.02
2023-04-09T15:40:31.239Z,12.50
2023-04-09T15:42:58.591Z,9.15
2023-04-09T15:45:26.860Z,12.45
2023-04-09T15:47:54.438Z,9.85
2023-04-09T15:50:22.088Z,9.40
2023-04-09T15:52:49.697Z,8.43
2023-04-09T15:55:17.462Z,12.68
2023-04-09T15:57:47.054Z,10.95
2023-04-09T16:00:15.656Z,9.20
2023-04-09T16:02:43.365Z,8.38
2023-04-09T16:05:10.992Z,9.15
2023-04-09T16:07:39.823Z,7.20
2023-04-09T16:10:07.940Z,6.53
2023-04-09T16:12:35.250Z,6.78
2023-04-09T16:15:02.980Z,6.07
2023-04-09T16:17:30.916Z,7.32
2023-04-09T16:19:58.603Z,12.13
2023-04-09T16:22:26.637Z,5.53
2023-04-09T16:24:53.970Z,7.75
2023-04-09T16:27:22.123Z,10.30
2023-04-09T16:29:49.600Z,6.72
2023-04-09T16:32:17.128Z,4.78
2023-04-09T16:34:44.613Z,4.90
2023-04-09T16:37:11.968Z,6.03
2023-04-09T16:39:39.667Z,4.45
2023-04-09T16:42:07.204Z,4.93
2023-04-09T16:44:34.687Z,9.52
2023-04-09T16:47:02.882Z,5.15
2023-04-09T16:49:31.455Z,5.28
2023-04-09T16:51:58.835Z,6.95
2023-04-09T16:54:26.255Z,7.85
2023-04-09T16:56:53.611Z,5.70
2023-04-09T16:59:21.392Z,6.90
2023-04-09T17:01:49.347Z,7.10
2023-04-09T17:04:16.861Z,5.25
2023-04-09T17:06:44.484Z,6.78
2023-04-09T17:09:11.957Z,4.10
2023-04-09T17:11:39.660Z,5.07
2023-04-09T17:14:06.949Z,9.13
2023-04-09T17:16:34.527Z,7.07
2023-04-09T17:19:01.890Z,3.95
2023-04-09T17:21:29.175Z,3.25
2023-04-09T17:23:57.105Z,3.88
2023-04-09T17:26:25.558Z,4.35
2023-04-09T17:28:53.236Z,3.13
2023-04-09T17:31:24.232Z,3.22
2023-04-09T17:33:52.487Z,4.20
2023-04-09T17:36:21.225Z,9.45
2023-04-09T17:38:49.668Z,4.40
2023-04-09T17:41:17.115Z,5.90
2023-04-09T17:43:44.633Z,4.13
2023-04-09T17:46:12.958Z,2.78
2023-04-09T17:48:41.328Z,4.25
2023-04-09T17:51:08.797Z,5.78
2023-04-09T17:53:36.376Z,5.68
2023-04-09T17:56:04.309Z,5.55
2023-04-09T17:58:31.986Z,5.32
2023-04-09T18:00:59.660Z,4.18
2023-04-09T18:03:27.489Z,5.05
2023-04-09T18:05:55.264Z,5.70
2023-04-09T18:08:22.816Z,6.05
2023-04-09T18:11:04.946Z,3.92
2023-04-09T18:13:39.230Z,5.30
2023-04-09T18:16:12.439Z,6.90
2023-04-09T18:18:40.121Z,3.08
2023-04-09T18:21:07.637Z,8.70
2023-04-09T18:23:35.396Z,9.95
2023-04-09T18:26:03.171Z,5.32
2023-04-09T18:28:30.795Z,6.10
2023-04-09T18:30:58.918Z,4.28
2023-04-09T18:33:27.186Z,2.80
2023-04-09T18:35:54.725Z,3.80
2023-04-09T18:38:22.344Z,5.88
2023-04-09T18:40:49.833Z,4.88
2023-04-09T18:43:17.216Z,4.53
2023-04-09T18:45:44.599Z,3.35
2023-04-09T18:48:12.074Z,4.10
2023-04-09T18:50:39.471Z,4.68
2023-04-09T18:53:07.332Z,5.57
2023-04-09T18:55:38.473Z,3.08
2023-04-09T18:58:12.912Z,5.43
2023-04-09T19:03:08.824Z,6.40
2023-04-09T19:05:36.545Z,5.35
2023-04-09T19:08:05.784Z,9.07
2023-04-09T19:10:33.189Z,6.03
2023-04-09T19:13:00.615Z,7.63
2023-04-09T19:15:29.532Z,8.82
2023-04-09T19:17:57.346Z,9.52
2023-04-09T19:20:24.778Z,8.35
2023-04-09T19:22:54.713Z,7.47
2023-04-09T19:25:23.133Z,9.40
2023-04-09T19:27:50.880Z,10.85
2023-04-09T19:30:18.479Z,13.48
2023-04-09T19:32:46.327Z,13.52
2023-04-09T19:35:13.942Z,15.77
2023-04-09T19:37:41.466Z,14.30
2023-04-09T19:40:09.555Z,14.40
2023-04-09T19:42:37.240Z,12.60
2023-04-09T19:45:04.909Z,12.57
2023-04-09T19:47:32.477Z,11.23
2023-04-09T19:50:00.076Z,10.95
2023-04-09T19:52:27.472Z,9.45
2023-04-09T19:54:58.379Z,11.68
2023-04-09T19:57:26.638Z,10.35
2023-04-09T19:59:54.334Z,6.95
2023-04-09T20:02:21.778Z,11.52
2023-04-09T20:04:50.812Z,5.55
2023-04-09T20:07:18.705Z,7.60
2023-04-09T20:09:47.086Z,8.55
2023-04-09T20:12:14.715Z,7.38
2023-04-09T20:14:42.179Z,10.32
2023-04-09T20:17:10.857Z,6.93
2023-04-09T20:19:38.273Z,12.95
2023-04-09T20:22:05.822Z,4.93
2023-04-09T20:24:34.108Z,9.20
2023-04-09T20:27:01.815Z,7.50
2023-04-09T20:29:29.470Z,12.05
2023-04-09T20:31:57.034Z,7.75
2023-04-09T20:34:26.975Z,8.25
2023-04-09T20:36:55.689Z,5.88
2023-04-09T20:39:25.107Z,11.88
2023-04-09T20:41:56.860Z,6.65
2023-04-09T20:44:25.020Z,7.82
2023-04-09T20:46:52.427Z,6.30
2023-04-09T20:49:20.386Z,6.68
2023-04-09T20:51:47.749Z,6.63
2023-04-09T20:54:15.654Z,9.23
2023-04-09T20:56:44.753Z,7.90
2023-04-09T20:59:12.515Z,6.20
2023-04-09T21:01:40.557Z,6.90
2023-04-09T21:04:08.952Z,8.77
2023-04-09T21:06:36.505Z,10.15
2023-04-09T21:09:04.022Z,7.30
2023-04-09T21:11:31.552Z,7.65
2023-04-09T21:13:59.265Z,7.70
2023-04-09T21:16:28.644Z,7.28
2023-04-09T21:18:56.585Z,8.90
2023-04-09T21:21:24.164Z,8.32
2023-04-09T21:23:51.607Z,5.13
2023-04-09T21:26:21.739Z,10.18
2023-04-09T21:28:50.708Z,10.25
2023-04-09T21:31:18.370Z,7.53
2023-04-09T21:33:45.876Z,6.18
2023-04-09T21:36:13.586Z,7.68
2023-04-09T21:38:41.486Z,8.07
2023-04-09T21:41:08.835Z,7.63
2023-04-09T21:43:38.556Z,8.30
2023-04-09T21:46:06.147Z,6.60
2023-04-09T21:48:33.743Z,11.00
2023-04-09T21:51:01.577Z,6.18
2023-04-09T21:53:31.480Z,4.75
2023-04-09T21:55:59.097Z,6.07
2023-04-09T21:58:26.676Z,9.35
2023-04-09T22:00:54.321Z,8.48
2023-04-09T22:03:22.592Z,7.47
2023-04-09T22:05:50.263Z,6.47
2023-04-09T22:08:18.466Z,5.93
2023-04-09T22:10:45.760Z,7.15
2023-04-09T22:13:13.174Z,5.40
2023-04-09T22:15:41.921Z,5.63
2023-04-09T22:18:09.535Z,4.93
2023-04-09T22:20:37.025Z,4.82
2023-04-09T22:23:04.482Z,6.60
2023-04-09T22:25:35.205Z,8.65
2023-04-09T22:28:05.804Z,4.82
2023-04-09T22:30:33.289Z,6.22
2023-04-09T22:33:02.305Z,13.15
2023-04-09T22:35:29.765Z,7.65
2023-04-09T22:37:57.329Z,5.95
2023-04-09T22:40:24.928Z,6.35
2023-04-09T22:42:52.652Z,7.35
2023-04-09T22:45:20.566Z,4.47
2023-04-09T22:47:51.523Z,6.97
2023-04-09T22:50:19.346Z,7.20
2023-04-09T22:52:46.835Z,9.50
2023-04-09T22:55:14.359Z,4.95
2023-04-09T22:57:43.170Z,6.15
2023-04-09T23:00:10.855Z,4.32
2023-04-09T23:02:38.595Z,5.72
2023-04-09T23:05:06.902Z,5.68
2023-04-09T23:07:34.684Z,4.95
2023-04-09T23:10:02.270Z,7.35
2023-04-09T23:12:29.718Z,8.30
2023-04-09T23:14:57.116Z,3.72
2023-04-09T23:17:24.685Z,6.40
2023-04-09T23:19:54.757Z,4.15
2023-04-09T23:22:24.355Z,6.18
2023-04-09T23:24:51.783Z,7.75
2023-04-09T23:27:19.615Z,5.03
2023-04-09T23:29:46.942Z,3.78
2023-04-09T23:32:14.289Z,6.88
2023-04-09T23:34:41.689Z,10.85
2023-04-09T23:37:09.463Z,8.07
2023-04-09T23:39:36.922Z,5.70
2023-04-09T23:42:04.311Z,5.95
2023-04-09T23:44:33.206Z,7.50
2023-04-09T23:47:01.540Z,6.03
2023-04-09T23:49:29.394Z,7.68
2023-04-09T23:51:56.662Z,11.60
2023-04-09T23:54:24.013Z,9.10
2023-04-09T23:56:51.299Z,9.10
2023-04-09T23:59:18.733Z,12.10
